Sume, Brazil
Current Conditions -  °F | °C
As of 1:00 AM on Friday 19 Dec 2014 (Local Time) from SBKG Reporting Station
Broken Clouds Broken Clouds  
Wind Chill: 72°   Ceiling: 1700
Heat Index: 72°   Visibility: 6mi
Dew Point: 68°   Wind: 8mph
Humidity: 88%   Direction: 80°E
Pressure: 29.94"   Gusts: NA
Location:  7.67°S, 36.88°W
Report Text: SBKG 190400Z 08007KT 9999 SCT008 BKN017 22/20 Q1014
Loading
Personal Weather Stations






























Interactive Weather Map New forecast layout! Learn more

10-Day Weather Forecast

Advertisements
Track Severe Weather on mobile